< Typhoon 197909 1979 Season Typhoon 197911 >
Typhoon 197910 (IRVING)
General InformationTrack Information on Google MapsDetailed Wind InformationList of All Images || Disaster Info.ResourceGoogle EarthGE AnimationAtom FeedGeoJSON
Detalied Best Track (Time Zone = UTC)
Year Month Day Hour Lat. Long. Pressure (hPa) Wind (kt) Class Image Chart
1979 8 7 00 15.0 138.0 1004 0 2 Image Chart
1979 8 7 06 15.3 137.9 1002 0 2 Image Chart
1979 8 7 12 15.5 137.8 1002 0 2 Image Chart
1979 8 7 18 15.7 137.7 1000 0 2 Image Chart
1979 8 8 00 16.0 137.7 998 0 2 Image Chart
1979 8 8 06 16.5 137.4 998 0 2 Image Chart
1979 8 8 12 17.0 137.0 998 0 2 Image Chart
1979 8 8 18 17.4 136.5 998 0 2 Image Chart
1979 8 9 00 17.8 136.0 996 40 3 Image Chart
1979 8 9 06 18.0 135.7 994 40 3 Image Chart
1979 8 9 12 18.2 135.0 994 40 3 Image Chart
1979 8 9 18 18.3 134.3 994 40 3 Image Chart
1979 8 10 00 18.3 133.5 996 35 3 Image Chart
1979 8 10 06 18.4 132.3 996 35 3 Image Chart
1979 8 10 12 18.1 131.2 994 35 3 Image Chart
1979 8 10 18 17.7 130.0 994 35 3 Image Chart
1979 8 11 00 17.2 129.0 994 35 3 Image Chart
1979 8 11 06 16.5 128.6 990 40 3 Image Chart
1979 8 11 12 17.0 129.1 990 40 3 Image Chart
1979 8 11 18 17.8 128.6 985 40 3 Image Chart
1979 8 12 00 17.3 128.5 985 55 4 Image Chart
1979 8 12 06 18.2 127.3 980 60 4 Image Chart
1979 8 12 12 18.8 127.1 980 60 4 Image Chart
1979 8 12 18 19.1 127.1 975 60 4 Image Chart
1979 8 13 00 20.2 126.9 975 65 5 Image Chart
1979 8 13 06 21.1 126.9 970 70 5 Image Chart
1979 8 13 12 22.1 126.1 965 70 5 Image Chart
1979 8 13 18 22.9 125.4 965 70 5 Image Chart
1979 8 14 00 23.5 125.1 960 70 5 Image Chart
1979 8 14 06 23.9 124.9 955 70 5 Image Chart
1979 8 14 12 24.5 124.8 955 70 5 Image Chart
1979 8 14 18 25.1 124.6 955 75 5 Image Chart
1979 8 15 00 25.8 124.3 955 80 5 Image Chart
1979 8 15 06 26.7 124.2 955 80 5 Image Chart
1979 8 15 12 27.5 124.0 955 80 5 Image Chart
1979 8 15 18 28.3 123.8 955 80 5 Image Chart
1979 8 16 00 29.5 123.8 955 80 5 Image Chart
1979 8 16 06 30.8 123.8 955 80 5 Image Chart
1979 8 16 12 31.8 123.8 955 80 5 Image Chart
1979 8 16 18 32.9 124.2 960 70 5 Image Chart
1979 8 17 00 34.0 125.2 965 65 5 Image Chart
1979 8 17 06 35.5 126.5 970 60 4 Image Chart
1979 8 17 12 37.0 128.7 975 40 3 Image Chart
1979 8 17 18 39.6 130.7 975 45 3 Image Chart
1979 8 18 00 42.3 132.8 975 50 4 Image Chart
1979 8 18 06 45.0 134.8 975 50 4 Image Chart
1979 8 18 12 47.0 138.0 974 0 6 Image Chart
1979 8 18 18 47.8 139.6 974 0 6 Image Chart
1979 8 19 00 48.1 141.1 978 0 6 Image Chart
1979 8 19 06 50.3 144.0 982 0 6 Image Chart
1979 8 19 12 52.2 147.3 980 0 6 Image Chart
1979 8 19 18 54.1 150.6 980 0 6 Image Chart
1979 8 20 00 56.1 154.0 980 0 6 Image Chart
1979 8 20 06 57.0 155.2 980 0 6 Image Chart
1979 8 20 12 56.6 157.3 982 0 6 Image Chart
Japan Meteorological Agency Best Track Data | Correction Date : 1992-10-21
< Typhoon 197909 1979 Season Typhoon 197911 >

Help